Time;durP1;ratioP1;P1;durP2;ratioP2;P2;SDS_P1;SDS_P2;PMS_P1;PMS_P2;Temp;Humidity;BMP_temperature;BMP_pressure;BME280_temperature;BME280_humidity;BME280_pressure;Samples;Min_cycle;Max_cycle;Signal;HPM_P1;HPM_P2
2022/06/22 00:00:41;;;;;;;5.70;2.83;;;19.10;91.20;;;;;;5045931;28;20196;-36
2022/06/22 00:03:11;;;;;;;6.05;2.40;;;19.10;91.20;;;;;;5044749;28;20204;-36
2022/06/22 00:05:43;;;;;;;6.35;2.50;;;19.00;91.20;;;;;;5043967;28;20216;-36
2022/06/22 00:08:18;;;;;;;4.88;2.40;;;19.00;91.10;;;;;;5046298;28;20302;-37
2022/06/22 00:10:54;;;;;;;6.70;2.90;;;19.00;91.30;;;;;;5043752;28;20223;-37
2022/06/22 00:13:30;;;;;;;4.90;2.83;;;19.00;91.30;;;;;;5029627;28;20563;-36
2022/06/22 00:16:15;;;;;;;5.15;2.72;;;19.00;91.30;;;;;;5045994;28;20258;-36
2022/06/22 00:18:50;;;;;;;8.05;2.70;;;19.00;91.30;;;;;;5045282;28;20579;-36
2022/06/22 00:21:29;;;;;;;7.05;2.67;;;18.90;91.30;;;;;;5043127;28;20203;-37
2022/06/22 00:24:21;;;;;;;5.13;2.42;;;18.90;91.40;;;;;;5043051;28;20228;-36
2022/06/22 00:27:06;;;;;;;6.30;2.67;;;18.80;91.30;;;;;;5044175;28;20200;-36
2022/06/22 00:29:36;;;;;;;3.72;2.47;;;18.80;91.50;;;;;;5060231;28;20352;-37
2022/06/22 00:32:14;;;;;;;3.83;2.50;;;18.80;91.30;;;;;;5044916;28;20220;-36
2022/06/22 00:34:42;;;;;;;3.55;2.67;;;18.70;91.40;;;;;;5044991;28;20196;-37
2022/06/22 00:37:24;;;;;;;4.53;2.35;;;18.70;91.30;;;;;;5043853;28;20240;-36
2022/06/22 00:40:00;;;;;;;5.97;3.03;;;18.70;91.50;;;;;;5044839;28;20727;-40
2022/06/22 00:42:44;;;;;;;6.63;3.15;;;18.70;91.30;;;;;;5037285;28;20216;-40
2022/06/22 00:45:27;;;;;;;5.80;2.60;;;18.70;91.30;;;;;;5045661;28;20663;-40
2022/06/22 00:48:03;;;;;;;6.03;2.80;;;18.70;91.40;;;;;;5045990;28;20670;-40
2022/06/22 00:50:54;;;;;;;5.97;3.10;;;18.60;91.30;;;;;;5030299;28;20191;-40
2022/06/22 00:53:34;;;;;;;5.32;2.80;;;18.60;91.50;;;;;;5044698;28;20311;-40
2022/06/22 00:56:48;;;;;;;5.85;3.00;;;18.60;91.40;;;;;;5045414;28;20196;-40
2022/06/22 00:59:42;;;;;;;5.82;2.83;;;18.50;91.50;;;;;;4981118;28;20303;-40
2022/06/22 01:02:26;;;;;;;5.78;2.70;;;18.50;91.50;;;;;;4984435;28;20208;-40
2022/06/22 01:05:24;;;;;;;3.30;2.55;;;18.50;91.40;;;;;;5030594;28;20228;-40
2022/06/22 01:08:12;;;;;;;4.50;2.90;;;18.50;91.50;;;;;;5048179;28;20670;-40
2022/06/22 01:12:16;;;;;;;4.80;2.70;;;18.50;91.50;;;;;;5047536;28;20215;-40
2022/06/22 01:14:04;;;;;;;4.88;2.78;;;18.50;91.50;;;;;;5046646;28;20204;-40
2022/06/22 01:16:41;;;;;;;5.63;2.33;;;18.40;91.40;;;;;;5049199;28;20799;-40
2022/06/22 01:19:36;;;;;;;5.22;2.80;;;18.40;91.50;;;;;;5040699;28;20543;-40
2022/06/22 01:22:19;;;;;;;3.25;2.80;;;18.40;91.60;;;;;;5046270;28;20636;-40
2022/06/22 01:24:52;;;;;;;4.53;2.47;;;18.30;91.60;;;;;;5047254;28;20224;-40
2022/06/22 01:27:30;;;;;;;3.72;3.22;;;18.20;91.50;;;;;;5048443;28;20421;-40
2022/06/22 01:30:00;;;;;;;3.42;2.63;;;18.20;91.40;;;;;;5045284;28;20208;-40
2022/06/22 01:32:31;;;;;;;4.47;2.90;;;18.10;91.40;;;;;;5050964;28;20606;-40
2022/06/22 01:35:03;;;;;;;5.65;2.90;;;18.10;91.50;;;;;;5045757;28;20208;-40
2022/06/22 01:37:32;;;;;;;4.22;2.80;;;18.10;91.60;;;;;;5048094;28;20232;-40
2022/06/22 01:40:16;;;;;;;4.18;2.92;;;18.00;91.50;;;;;;5042020;28;20872;-39
2022/06/22 01:42:50;;;;;;;5.13;2.72;;;18.00;91.60;;;;;;5041863;28;20204;-40
2022/06/22 01:45:26;;;;;;;4.63;2.80;;;18.00;91.50;;;;;;5047439;28;20713;-40
2022/06/22 01:48:19;;;;;;;5.65;2.97;;;18.00;91.80;;;;;;5049433;28;20200;-40
2022/06/22 01:51:04;;;;;;;6.88;3.10;;;17.90;91.70;;;;;;5032259;28;20315;-40
2022/06/22 01:53:37;;;;;;;8.67;3.50;;;17.90;91.70;;;;;;5042278;28;20219;-40
2022/06/22 01:56:19;;;;;;;5.68;3.28;;;17.90;91.60;;;;;;5045901;28;20204;-40
2022/06/22 01:59:01;;;;;;;6.43;3.20;;;17.80;91.90;;;;;;5040434;28;20236;-44
2022/06/22 02:01:56;;;;;;;5.28;3.33;;;17.80;91.70;;;;;;5048207;28;20257;-40
2022/06/22 02:04:47;;;;;;;5.60;3.50;;;17.70;91.80;;;;;;5047952;28;20266;-40
2022/06/22 02:07:45;;;;;;;5.20;3.08;;;17.70;91.80;;;;;;5047388;28;20220;-40
2022/06/22 02:10:30;;;;;;;5.90;3.33;;;17.70;91.80;;;;;;5048043;28;20204;-40
2022/06/22 02:13:06;;;;;;;7.97;3.80;;;17.70;91.80;;;;;;5044971;28;20209;-40
2022/06/22 02:15:41;;;;;;;5.10;3.50;;;17.70;91.80;;;;;;5047132;28;20231;-40
2022/06/22 02:18:22;;;;;;;5.20;3.20;;;17.70;91.80;;;;;;5047134;28;20678;-40
2022/06/22 02:20:49;;;;;;;4.35;3.53;;;17.60;91.90;;;;;;5047581;28;20210;-40
2022/06/22 02:23:34;;;;;;;4.63;3.42;;;17.60;91.70;;;;;;5043872;28;20619;-36
2022/06/22 02:26:20;;;;;;;6.47;3.30;;;17.60;91.80;;;;;;5047506;28;20255;-36
2022/06/22 02:28:49;;;;;;;6.18;3.20;;;17.60;92.00;;;;;;5047068;28;20694;-36
2022/06/22 02:31:21;;;;;;;8.27;3.63;;;17.60;91.70;;;;;;5045986;28;20212;-36
2022/06/22 02:33:55;;;;;;;5.80;3.92;;;17.60;92.10;;;;;;5045617;28;20245;-36
2022/06/22 02:36:35;;;;;;;6.63;3.65;;;17.60;91.90;;;;;;5048172;28;20302;-36
2022/06/22 02:39:06;;;;;;;6.15;3.92;;;17.60;91.90;;;;;;5045863;28;20208;-36
2022/06/22 02:44:30;;;;;;;4.53;3.97;;;17.50;91.80;;;;;;5059559;28;20225;-36
2022/06/22 02:47:26;;;;;;;3.42;3.13;;;17.50;91.90;;;;;;5061933;28;20311;-36
2022/06/22 02:50:00;;;;;;;9.27;4.28;;;17.50;92.00;;;;;;5044409;28;20639;-40
2022/06/22 02:52:40;;;;;;;9.25;3.65;;;17.50;91.90;;;;;;5047158;28;20552;-40
2022/06/22 02:55:16;;;;;;;6.30;3.70;;;17.40;92.00;;;;;;5043984;28;20203;-40
2022/06/22 02:57:43;;;;;;;6.57;4.10;;;17.40;91.90;;;;;;5043238;28;20212;-40
2022/06/22 03:00:14;;;;;;;7.07;4.10;;;17.40;91.80;;;;;;5045333;28;20230;-40
2022/06/22 03:02:46;;;;;;;5.93;4.13;;;17.40;92.00;;;;;;5048848;28;20196;-40
2022/06/22 03:05:14;;;;;;;5.95;3.78;;;17.40;92.00;;;;;;5044207;28;20761;-40
2022/06/22 03:07:49;;;;;;;6.90;4.00;;;17.40;92.00;;;;;;5046242;28;20235;-40
2022/06/22 03:10:22;;;;;;;4.72;3.90;;;17.30;92.00;;;;;;5042559;28;20285;-40
2022/06/22 03:12:49;;;;;;;5.18;3.88;;;17.30;92.10;;;;;;5048932;28;20204;-39
2022/06/22 03:15:29;;;;;;;4.60;3.90;;;17.30;92.10;;;;;;5045953;28;20598;-39
2022/06/22 03:17:59;;;;;;;6.32;4.07;;;17.20;92.20;;;;;;5037441;28;20696;-40
2022/06/22 03:20:35;;;;;;;7.70;4.38;;;17.20;92.20;;;;;;5040985;28;20624;-39
2022/06/22 03:23:12;;;;;;;5.10;4.50;;;17.20;92.20;;;;;;5046627;28;20211;-39
2022/06/22 03:25:53;;;;;;;6.90;4.47;;;17.20;92.40;;;;;;5044011;28;20335;-39
2022/06/22 03:28:47;;;;;;;7.43;4.22;;;17.20;92.40;;;;;;5046914;28;20227;-40
2022/06/22 03:31:26;;;;;;;7.05;4.47;;;17.10;92.50;;;;;;5032779;28;20207;-40
2022/06/22 03:34:04;;;;;;;7.30;4.10;;;17.10;92.40;;;;;;5043353;28;20293;-39
2022/06/22 03:36:40;;;;;;;7.43;4.30;;;17.10;92.40;;;;;;5047308;28;20239;-39
2022/06/22 03:39:14;;;;;;;8.43;4.57;;;17.10;92.30;;;;;;5046629;28;20200;-40
2022/06/22 03:41:49;;;;;;;6.40;4.75;;;17.00;92.30;;;;;;5044858;28;20281;-39
2022/06/22 03:44:26;;;;;;;6.60;4.25;;;17.00;92.70;;;;;;5045324;28;20677;-39
2022/06/22 03:47:23;;;;;;;5.93;4.53;;;17.00;92.40;;;;;;5045817;28;20200;-39
2022/06/22 03:50:02;;;;;;;5.05;4.53;;;17.00;92.30;;;;;;5013885;28;20200;-40
2022/06/22 03:52:58;;;;;;;5.10;4.60;;;17.10;92.60;;;;;;5040712;28;20212;-39
2022/06/22 03:55:32;;;;;;;7.10;4.35;;;17.10;92.70;;;;;;5035595;28;20204;-43
2022/06/22 03:58:02;;;;;;;7.00;5.03;;;17.10;92.60;;;;;;5040835;28;20298;-40
2022/06/22 04:00:32;;;;;;;6.93;4.70;;;17.10;92.60;;;;;;5044406;28;20212;-40
2022/06/22 04:03:02;;;;;;;8.10;4.85;;;17.10;92.60;;;;;;5046593;28;20761;-40
2022/06/22 04:05:38;;;;;;;7.38;4.72;;;17.10;92.60;;;;;;5043292;28;20315;-39
2022/06/22 04:08:12;;;;;;;6.18;4.40;;;17.10;92.60;;;;;;5046177;28;20210;-39
2022/06/22 04:10:46;;;;;;;6.07;4.88;;;17.10;92.60;;;;;;5046059;28;20295;-39
2022/06/22 04:13:24;;;;;;;7.38;4.68;;;17.10;92.70;;;;;;5034144;28;20195;-40
2022/06/22 04:16:09;;;;;;;6.47;4.22;;;17.10;92.70;;;;;;5044010;28;20227;-39
2022/06/22 04:18:46;;;;;;;7.22;5.15;;;17.10;92.90;;;;;;5045968;28;20301;-40
2022/06/22 04:21:25;;;;;;;5.05;4.30;;;17.10;92.80;;;;;;5045340;28;20296;-39
2022/06/22 04:24:14;;;;;;;5.05;4.55;;;17.10;92.70;;;;;;5043437;28;20242;-39
2022/06/22 04:27:13;;;;;;;5.90;4.88;;;17.10;92.70;;;;;;5045887;28;20294;-39
2022/06/22 04:30:12;;;;;;;6.57;4.70;;;17.10;92.80;;;;;;5042045;28;20242;-39
2022/06/22 04:32:51;;;;;;;6.93;5.07;;;17.10;92.90;;;;;;5045899;28;20214;-40
2022/06/22 04:35:41;;;;;;;6.63;5.07;;;17.00;92.80;;;;;;5039682;28;20252;-41
2022/06/22 04:38:30;;;;;;;7.65;5.28;;;17.10;93.00;;;;;;5046889;28;20315;-40
2022/06/22 04:41:22;;;;;;;6.18;5.10;;;17.10;92.90;;;;;;5046323;28;20690;-40
2022/06/22 04:43:50;;;;;;;7.10;5.68;;;17.10;93.10;;;;;;5039869;28;20382;-36
2022/06/22 04:46:27;;;;;;;6.85;5.13;;;17.10;92.90;;;;;;5045033;28;20231;-36
2022/06/22 04:49:00;;;;;;;6.57;5.18;;;17.10;93.00;;;;;;5045214;28;20247;-36
2022/06/22 04:51:35;;;;;;;9.82;6.18;;;17.20;93.30;;;;;;5046626;28;20219;-36
2022/06/22 04:54:31;;;;;;;6.95;5.55;;;17.20;93.30;;;;;;5043293;28;20206;-36
2022/06/22 04:57:11;;;;;;;7.57;5.55;;;17.20;93.40;;;;;;5059808;28;20196;-36
2022/06/22 04:59:39;;;;;;;8.50;5.43;;;17.20;93.30;;;;;;5037549;28;20211;-36
2022/06/22 05:02:13;;;;;;;7.38;5.80;;;17.20;93.10;;;;;;5047602;28;20200;-36
2022/06/22 05:04:48;;;;;;;9.35;6.90;;;17.30;93.40;;;;;;5045372;28;20200;-36
2022/06/22 05:07:51;;;;;;;7.13;5.65;;;17.30;93.50;;;;;;5043755;28;20924;-36
2022/06/22 05:10:31;;;;;;;6.25;5.63;;;17.30;93.50;;;;;;5016597;28;20195;-36
2022/06/22 05:13:11;;;;;;;8.63;6.13;;;17.40;93.40;;;;;;5042400;28;20212;-38
2022/06/22 05:15:41;;;;;;;8.52;5.90;;;17.40;93.50;;;;;;5043565;28;20682;-37
2022/06/22 05:18:17;;;;;;;8.73;6.60;;;17.40;93.50;;;;;;5042411;28;20258;-37
2022/06/22 05:20:56;;;;;;;8.35;7.40;;;17.50;93.50;;;;;;5040882;28;20204;-37
2022/06/22 05:23:26;;;;;;;8.45;6.63;;;17.50;93.70;;;;;;5044933;28;20724;-37
2022/06/22 05:26:04;;;;;;;9.48;7.15;;;17.60;93.70;;;;;;5042097;28;20311;-37
2022/06/22 05:28:34;;;;;;;9.68;7.10;;;17.60;93.80;;;;;;5043487;28;20200;-37
2022/06/22 05:31:10;;;;;;;9.80;7.18;;;17.70;93.90;;;;;;5045205;28;20761;-35
2022/06/22 05:33:42;;;;;;;8.88;7.03;;;17.70;93.90;;;;;;5042754;28;20200;-36
2022/06/22 05:36:12;;;;;;;8.70;7.13;;;17.80;93.90;;;;;;5043202;28;20232;-35
2022/06/22 05:38:44;;;;;;;8.82;6.70;;;17.80;94.00;;;;;;5042022;28;20720;-36
2022/06/22 05:41:15;;;;;;;8.60;7.05;;;17.80;93.90;;;;;;5056122;28;20196;-36
2022/06/22 05:43:43;;;;;;;6.82;6.18;;;17.80;94.00;;;;;;5043820;28;20208;-37
2022/06/22 05:46:13;;;;;;;8.10;7.15;;;17.90;93.90;;;;;;5045019;28;20659;-37
2022/06/22 05:48:47;;;;;;;8.70;7.60;;;17.90;94.00;;;;;;5046644;28;20676;-35
2022/06/22 05:51:28;;;;;;;9.30;6.80;;;17.90;94.10;;;;;;5045460;28;20507;-35
2022/06/22 05:54:01;;;;;;;9.70;7.25;;;17.90;94.50;;;;;;5047714;28;20694;-35
2022/06/22 05:56:40;;;;;;;8.88;6.80;;;17.90;93.90;;;;;;5048928;28;20220;-39
2022/06/22 05:59:15;;;;;;;10.23;7.22;;;17.90;94.10;;;;;;5029170;28;20322;-39
2022/06/22 06:02:07;;;;;;;8.07;7.28;;;18.00;94.10;;;;;;5040111;28;20296;-39
2022/06/22 06:04:47;;;;;;;8.73;7.22;;;18.00;94.20;;;;;;5040289;28;20845;-39
2022/06/22 06:07:40;;;;;;;9.57;7.63;;;18.00;94.40;;;;;;5041291;28;20302;-39
2022/06/22 06:10:16;;;;;;;9.27;7.95;;;18.10;94.40;;;;;;5047256;28;20258;-39
2022/06/22 06:13:12;;;;;;;12.93;8.13;;;18.20;94.40;;;;;;5047718;28;20200;-39
2022/06/22 06:15:40;;;;;;;11.95;9.45;;;18.20;94.30;;;;;;5036935;28;20378;-39
2022/06/22 06:18:12;;;;;;;12.52;8.93;;;18.30;94.80;;;;;;5045143;28;20739;-39
2022/06/22 06:20:46;;;;;;;9.82;8.77;;;18.30;94.50;;;;;;5046271;28;20646;-39
2022/06/22 06:23:18;;;;;;;10.32;9.30;;;18.40;94.70;;;;;;5048746;28;20223;-39
2022/06/22 06:28:57;;;;;;;11.85;8.45;;;18.50;94.70;;;;;;5034959;28;20845;-39
2022/06/22 06:31:45;;;;;;;10.98;8.65;;;18.60;94.80;;;;;;5029936;28;20201;-39
2022/06/22 06:34:18;;;;;;;11.48;9.20;;;18.70;94.80;;;;;;5047130;28;20200;-39
2022/06/22 06:36:54;;;;;;;10.35;8.48;;;18.80;95.00;;;;;;5043985;28;20241;-39
2022/06/22 06:39:28;;;;;;;9.25;8.32;;;18.80;94.90;;;;;;5047425;28;20632;-40
2022/06/22 06:42:06;;;;;;;11.90;8.98;;;18.90;94.90;;;;;;5041562;28;20723;-41
2022/06/22 06:44:44;;;;;;;12.68;9.32;;;19.00;95.10;;;;;;5049694;28;20566;-39
2022/06/22 06:47:25;;;;;;;9.13;8.23;;;19.10;95.10;;;;;;5044498;28;20250;-40
2022/06/22 06:50:08;;;;;;;11.07;8.07;;;19.10;95.20;;;;;;5046396;28;20687;-39
2022/06/22 06:52:53;;;;;;;12.45;8.02;;;19.20;95.30;;;;;;5041605;28;20258;-39
2022/06/22 06:55:48;;;;;;;15.30;8.80;;;19.30;95.20;;;;;;5054046;28;20394;-40
2022/06/22 06:58:30;;;;;;;11.00;8.65;;;19.30;95.50;;;;;;5048016;28;20593;-39
2022/06/22 07:01:00;;;;;;;11.95;8.23;;;19.40;95.80;;;;;;5048028;28;20566;-40
2022/06/22 07:03:39;;;;;;;9.10;7.47;;;19.50;95.40;;;;;;5046439;28;20212;-39
2022/06/22 07:06:11;;;;;;;7.40;6.68;;;19.60;95.50;;;;;;5056115;28;20578;-40
2022/06/22 07:08:51;;;;;;;12.65;7.65;;;19.60;95.30;;;;;;5054361;28;20304;-39
2022/06/22 07:11:31;;;;;;;9.13;7.22;;;19.70;95.50;;;;;;5065360;28;20191;-40
2022/06/22 07:14:17;;;;;;;9.63;7.68;;;19.80;95.50;;;;;;5046873;28;20216;-42
2022/06/22 07:16:49;;;;;;;8.65;6.88;;;19.90;95.70;;;;;;5047563;28;20246;-36
2022/06/22 07:19:23;;;;;;;8.73;6.65;;;19.90;95.60;;;;;;5046794;28;20293;-36
2022/06/22 07:22:10;;;;;;;12.65;7.82;;;20.00;95.70;;;;;;5032231;28;20212;-37
2022/06/22 07:24:39;;;;;;;9.32;6.78;;;20.10;95.80;;;;;;5020552;28;20413;-37
2022/06/22 07:27:24;;;;;;;10.32;7.07;;;20.10;95.70;;;;;;5053561;28;20714;-38
2022/06/22 07:30:09;;;;;;;8.10;6.90;;;20.20;96.00;;;;;;5039430;28;20615;-37
2022/06/22 07:33:03;;;;;;;10.88;7.55;;;20.20;95.90;;;;;;5042516;28;20219;-38
2022/06/22 07:35:59;;;;;;;12.02;6.50;;;20.30;95.90;;;;;;5040036;28;20204;-38
2022/06/22 07:38:34;;;;;;;9.10;6.63;;;20.40;95.90;;;;;;5044948;28;20258;-40
2022/06/22 07:41:20;;;;;;;8.35;5.55;;;20.50;96.00;;;;;;5046402;28;20627;-42
2022/06/22 07:43:50;;;;;;;9.88;6.53;;;20.60;95.90;;;;;;5041774;28;20299;-42
2022/06/22 07:46:42;;;;;;;11.18;5.68;;;20.70;96.00;;;;;;5045009;28;20682;-42
2022/06/22 07:49:14;;;;;;;10.18;6.30;;;20.80;95.90;;;;;;5043673;28;20212;-41
2022/06/22 07:51:52;;;;;;;6.95;4.97;;;20.80;96.00;;;;;;5046424;28;20307;-41
2022/06/22 07:54:49;;;;;;;9.07;6.50;;;20.90;96.00;;;;;;5043188;28;20682;-41
2022/06/22 07:57:53;;;;;;;17.58;7.20;;;20.90;96.00;;;;;;5037982;28;20626;-41
2022/06/22 08:00:22;;;;;;;6.78;5.28;;;21.00;96.00;;;;;;5040142;28;20654;-41
2022/06/22 08:03:06;;;;;;;7.65;5.78;;;21.00;95.90;;;;;;5046032;28;20582;-41
2022/06/22 08:05:38;;;;;;;7.15;4.10;;;21.00;96.00;;;;;;5047239;28;20210;-41
2022/06/22 08:08:20;;;;;;;8.00;5.22;;;21.10;96.00;;;;;;5055391;28;20204;-41
2022/06/22 08:11:25;;;;;;;10.07;5.32;;;21.20;96.00;;;;;;5048147;28;20247;-41
2022/06/22 08:14:06;;;;;;;6.05;4.45;;;21.20;96.00;;;;;;5034611;28;20335;-41
2022/06/22 08:16:41;;;;;;;11.15;5.47;;;21.30;96.00;;;;;;5045737;28;20622;-42
2022/06/22 08:19:09;;;;;;;7.57;4.25;;;21.30;96.00;;;;;;5040488;28;20616;-41
2022/06/22 08:21:41;;;;;;;7.20;4.70;;;21.40;96.00;;;;;;5043710;28;20232;-41
2022/06/22 08:24:13;;;;;;;7.32;4.53;;;21.40;96.00;;;;;;5039574;28;20204;-41
2022/06/22 08:26:46;;;;;;;9.20;5.53;;;21.50;96.00;;;;;;5039188;28;20236;-41
2022/06/22 08:29:19;;;;;;;12.38;4.85;;;21.60;96.00;;;;;;5037432;28;20223;-41
2022/06/22 08:32:03;;;;;;;11.20;6.00;;;21.60;95.90;;;;;;5041548;28;20203;-38
2022/06/22 08:34:53;;;;;;;8.77;4.78;;;21.60;95.80;;;;;;5039472;28;20296;-37
2022/06/22 08:37:31;;;;;;;9.63;4.93;;;21.60;95.80;;;;;;5036519;28;20615;-37
2022/06/22 08:40:11;;;;;;;5.60;4.10;;;21.60;95.80;;;;;;5041205;28;20204;-37
2022/06/22 08:42:50;;;;;;;6.57;4.20;;;21.70;95.80;;;;;;5043360;28;20326;-37
2022/06/22 08:45:42;;;;;;;5.63;4.28;;;21.80;95.80;;;;;;5040548;28;20250;-37
2022/06/22 08:48:32;;;;;;;9.48;4.80;;;21.80;95.70;;;;;;5042275;28;20206;-37
2022/06/22 08:51:24;;;;;;;9.40;4.38;;;21.80;95.70;;;;;;5038129;28;20654;-38
2022/06/22 08:54:22;;;;;;;5.65;3.38;;;21.90;95.80;;;;;;5043785;28;20742;-38
2022/06/22 08:56:59;;;;;;;9.43;4.63;;;21.90;95.70;;;;;;5041095;28;20911;-37
2022/06/22 08:59:43;;;;;;;6.90;3.08;;;21.90;95.70;;;;;;5040379;28;20238;-37
2022/06/22 09:02:40;;;;;;;9.52;4.22;;;22.00;95.80;;;;;;5038739;28;20585;-38
2022/06/22 09:05:26;;;;;;;6.40;3.55;;;22.10;95.70;;;;;;5008355;28;20608;-36
2022/06/22 09:08:02;;;;;;;5.90;3.28;;;22.10;95.40;;;;;;5033961;28;20503;-36
2022/06/22 09:10:35;;;;;;;7.70;2.78;;;22.20;95.60;;;;;;5045821;28;20349;-36
2022/06/22 09:13:21;;;;;;;9.73;3.70;;;22.20;95.60;;;;;;5036360;28;20197;-37
2022/06/22 09:16:06;;;;;;;9.45;4.10;;;22.30;95.40;;;;;;5038678;28;20235;-37
2022/06/22 09:18:58;;;;;;;9.35;3.70;;;22.30;95.20;;;;;;5040993;28;20666;-37
2022/06/22 09:21:37;;;;;;;6.85;4.10;;;22.30;95.20;;;;;;5049148;28;20195;-37
2022/06/22 09:24:22;;;;;;;6.40;4.32;;;22.30;94.90;;;;;;5058318;28;20196;-37
2022/06/22 09:27:19;;;;;;;6.50;3.70;;;22.40;94.60;;;;;;5048422;28;20235;-37
2022/06/22 09:29:58;;;;;;;8.30;4.28;;;22.40;95.10;;;;;;5044402;28;20245;-37
2022/06/22 09:33:01;;;;;;;7.93;4.20;;;22.50;95.20;;;;;;5041721;28;20965;-37
2022/06/22 09:36:06;;;;;;;6.18;3.28;;;22.50;94.80;;;;;;5024844;28;20204;-42
2022/06/22 09:38:42;;;;;;;13.00;5.60;;;22.60;95.10;;;;;;5040379;28;20317;-42
2022/06/22 09:41:44;;;;;;;10.57;5.15;;;22.60;94.60;;;;;;5039384;28;20203;-46
2022/06/22 09:44:15;;;;;;;8.93;4.40;;;22.70;94.60;;;;;;5045561;28;20242;-43
2022/06/22 09:47:20;;;;;;;6.18;4.22;;;22.70;94.50;;;;;;5048631;28;20310;-48
2022/06/22 09:50:15;;;;;;;8.27;4.75;;;22.70;94.60;;;;;;5046848;28;20621;-37
2022/06/22 09:53:13;;;;;;;7.13;4.20;;;22.80;94.20;;;;;;5046611;28;20771;-37
2022/06/22 09:56:19;;;;;;;8.63;4.20;;;22.80;93.90;;;;;;5046556;28;20201;-37
2022/06/22 09:59:22;;;;;;;8.02;4.35;;;22.90;94.40;;;;;;5041936;28;20208;-37
2022/06/22 10:02:01;;;;;;;7.00;3.63;;;23.00;94.00;;;;;;5044866;28;20587;-36
2022/06/22 10:04:55;;;;;;;9.35;3.45;;;23.00;94.30;;;;;;5037622;28;20207;-36
2022/06/22 10:07:37;;;;;;;7.97;4.00;;;23.10;94.40;;;;;;5044478;28;20220;-37
2022/06/22 10:10:14;;;;;;;6.20;3.60;;;23.20;93.80;;;;;;5042914;28;20212;-42
2022/06/22 10:12:59;;;;;;;4.53;3.17;;;23.20;94.00;;;;;;5046253;28;20214;-43
2022/06/22 10:15:33;;;;;;;6.93;3.00;;;23.30;94.30;;;;;;5043246;28;20386;-36
2022/06/22 10:18:30;;;;;;;7.18;2.97;;;23.30;94.50;;;;;;5038766;28;20223;-36
2022/06/22 10:21:30;;;;;;;7.70;4.00;;;23.40;94.60;;;;;;5043762;28;20718;-36
2022/06/22 10:24:13;;;;;;;6.15;3.97;;;23.50;93.40;;;;;;5044057;28;20223;-36
2022/06/22 10:26:52;;;;;;;5.72;2.65;;;23.50;93.60;;;;;;5044213;28;20306;-36
2022/06/22 10:29:31;;;;;;;4.40;2.38;;;23.50;94.30;;;;;;5047446;28;20235;-36
2022/06/22 10:32:20;;;;;;;5.93;3.42;;;23.60;94.50;;;;;;5059810;28;20255;-36
2022/06/22 10:34:47;;;;;;;7.55;2.95;;;23.70;94.20;;;;;;5065941;28;20226;-42
2022/06/22 10:37:21;;;;;;;8.45;3.35;;;23.70;93.90;;;;;;5044284;28;20240;-41
2022/06/22 10:40:03;;;;;;;6.40;3.10;;;23.80;93.90;;;;;;5044228;28;20259;-41
2022/06/22 10:45:59;;;;;;;4.75;2.58;;;24.00;92.70;;;;;;5008541;28;20304;-41
2022/06/22 10:48:56;;;;;;;3.65;2.20;;;24.00;94.30;;;;;;5045787;28;20277;-41
2022/06/22 10:51:48;;;;;;;5.00;2.60;;;24.10;94.50;;;;;;5037941;28;20560;-40
2022/06/22 10:54:39;;;;;;;5.90;3.00;;;24.20;94.00;;;;;;5039603;28;20734;-41
2022/06/22 10:57:18;;;;;;;6.18;2.40;;;24.10;92.90;;;;;;5038200;28;20304;-40
2022/06/22 11:00:14;;;;;;;9.00;2.70;;;24.10;93.80;;;;;;5044288;28;20285;-36
2022/06/22 11:02:53;;;;;;;6.22;2.30;;;24.20;94.10;;;;;;5047859;28;20650;-36
2022/06/22 11:05:40;;;;;;;7.00;2.90;;;24.30;94.10;;;;;;5045535;28;20231;-36
2022/06/22 11:08:11;;;;;;;8.52;2.30;;;24.30;93.70;;;;;;5043219;28;20588;-35
2022/06/22 11:10:59;;;;;;;5.95;2.78;;;24.40;93.60;;;;;;5045999;28;20662;-36
2022/06/22 11:13:32;;;;;;;4.97;2.25;;;24.40;93.50;;;;;;5047132;28;20678;-40
2022/06/22 11:16:20;;;;;;;7.72;2.88;;;24.50;94.00;;;;;;5047370;28;20588;-40
2022/06/22 11:19:06;;;;;;;3.90;2.10;;;24.50;93.60;;;;;;5044431;28;20226;-40
2022/06/22 11:21:50;;;;;;;3.00;2.25;;;24.50;93.00;;;;;;5042723;28;20636;-41
2022/06/22 11:24:49;;;;;;;5.07;2.55;;;24.60;93.60;;;;;;5047551;28;20196;-41
2022/06/22 11:30:57;;;;;;;5.28;2.13;;;24.70;93.60;;;;;;5046232;28;20204;-45
2022/06/22 11:33:40;;;;;;;5.00;1.80;;;24.70;93.50;;;;;;5034575;28;20246;-43
2022/06/22 11:36:25;;;;;;;5.03;2.08;;;24.80;93.70;;;;;;5041990;28;20239;-41
2022/06/22 11:39:42;;;;;;;4.40;1.80;;;24.80;93.50;;;;;;5044492;28;20215;-42
2022/06/22 11:42:15;;;;;;;6.75;2.22;;;24.90;93.60;;;;;;5047243;28;20211;-42
2022/06/22 11:48:15;;;;;;;5.35;2.13;;;25.00;93.40;;;;;;5048303;28;20213;-42
2022/06/22 11:51:11;;;;;;;3.67;1.63;;;25.00;91.70;;;;;;5042232;28;20204;-42
2022/06/22 11:53:47;;;;;;;3.80;1.80;;;25.00;93.10;;;;;;5014658;28;20311;-43
2022/06/22 11:56:32;;;;;;;6.38;1.85;;;25.20;93.40;;;;;;5041680;28;20659;-43
2022/06/22 11:59:11;;;;;;;4.18;2.03;;;25.10;91.50;;;;;;5042198;28;20232;-43
2022/06/22 12:01:48;;;;;;;4.88;1.92;;;25.20;93.00;;;;;;5041598;28;20206;-43
2022/06/22 12:04:44;;;;;;;5.57;2.05;;;25.20;92.90;;;;;;5045917;28;20204;-43
2022/06/22 12:07:36;;;;;;;3.55;1.70;;;25.20;92.50;;;;;;5038637;28;20694;-43
2022/06/22 12:10:21;;;;;;;5.75;1.70;;;25.30;93.10;;;;;;5039639;28;20208;-43
2022/06/22 12:13:21;;;;;;;5.72;1.80;;;25.30;93.30;;;;;;5043777;28;20235;-44
2022/06/22 12:15:57;;;;;;;4.90;1.80;;;25.40;93.30;;;;;;5031142;28;20642;-43
2022/06/22 12:18:42;;;;;;;5.05;2.10;;;25.50;93.40;;;;;;5039330;28;20207;-43
2022/06/22 12:21:28;;;;;;;7.75;1.92;;;25.50;92.90;;;;;;5040793;28;20295;-43
2022/06/22 12:24:25;;;;;;;4.82;2.75;;;25.60;92.30;;;;;;5044756;28;20569;-43
2022/06/22 12:27:23;;;;;;;7.50;2.13;;;25.60;92.70;;;;;;5039604;28;20239;-43
2022/06/22 12:30:14;;;;;;;6.45;2.20;;;25.60;92.70;;;;;;5027321;28;20683;-44
2022/06/22 12:32:49;;;;;;;10.27;2.75;;;25.70;92.90;;;;;;5047242;28;20389;-37
2022/06/22 12:35:36;;;;;;;5.80;2.78;;;25.70;92.80;;;;;;5044311;28;20188;-36
2022/06/22 12:38:18;;;;;;;4.05;1.98;;;25.60;91.60;;;;;;5044999;28;20214;-36
2022/06/22 12:40:45;;;;;;;4.05;1.67;;;25.70;92.40;;;;;;5044627;28;20262;-36
2022/06/22 12:43:48;;;;;;;5.03;2.40;;;25.80;92.80;;;;;;5049015;28;20581;-36
2022/06/22 12:46:37;;;;;;;5.15;2.50;;;25.80;91.60;;;;;;5003100;28;20216;-36
2022/06/22 12:49:21;;;;;;;8.48;2.20;;;25.90;92.40;;;;;;5063285;28;20214;-37
2022/06/22 12:52:18;;;;;;;4.22;1.90;;;25.90;92.50;;;;;;5041117;28;20212;-44
2022/06/22 12:54:55;;;;;;;4.88;2.13;;;25.90;92.10;;;;;;5040937;28;20223;-44
2022/06/22 12:57:35;;;;;;;6.82;2.03;;;26.00;91.90;;;;;;5059509;28;20217;-44
2022/06/22 13:00:13;;;;;;;7.15;2.33;;;26.10;92.40;;;;;;5045011;28;20231;-44
2022/06/22 13:02:44;;;;;;;4.38;2.03;;;26.00;91.80;;;;;;5041592;28;20315;-43
2022/06/22 13:05:24;;;;;;;5.70;1.60;;;26.10;92.20;;;;;;5035407;28;20200;-44
2022/06/22 13:08:09;;;;;;;2.85;1.70;;;26.20;92.40;;;;;;5044709;28;20786;-44
2022/06/22 13:10:46;;;;;;;5.07;2.08;;;26.30;92.10;;;;;;5044373;28;20206;-47
2022/06/22 13:13:25;;;;;;;4.97;2.00;;;26.40;92.50;;;;;;5045074;28;20633;-44
2022/06/22 13:16:05;;;;;;;3.13;1.77;;;26.50;92.20;;;;;;5045915;28;20235;-45
2022/06/22 13:18:43;;;;;;;4.28;2.00;;;26.50;91.80;;;;;;5047007;28;21047;-44
2022/06/22 13:21:27;;;;;;;3.95;1.63;;;26.60;91.90;;;;;;5047949;28;20238;-44
2022/06/22 13:24:25;;;;;;;4.07;1.48;;;26.60;91.70;;;;;;5044836;28;20224;-44
2022/06/22 13:26:58;;;;;;;2.75;1.52;;;26.60;92.30;;;;;;5038892;28;20682;-45
2022/06/22 13:29:42;;;;;;;4.10;2.45;;;26.60;92.10;;;;;;5045803;28;20232;-44
2022/06/22 13:32:12;;;;;;;5.55;1.48;;;26.70;91.00;;;;;;5040172;28;20246;-44
2022/06/22 13:34:48;;;;;;;28.50;6.47;;;26.70;92.00;;;;;;5049173;28;20196;-44
2022/06/22 13:37:28;;;;;;;15.18;2.90;;;26.80;92.20;;;;;;5038226;28;20254;-44
2022/06/22 13:40:26;;;;;;;7.30;1.63;;;26.80;91.60;;;;;;5024978;28;20219;-44
2022/06/22 13:42:55;;;;;;;3.03;1.42;;;26.80;92.00;;;;;;5043124;28;20204;-44
2022/06/22 13:45:56;;;;;;;4.60;1.63;;;26.90;92.40;;;;;;5047071;28;20200;-44
2022/06/22 13:48:40;;;;;;;5.70;1.70;;;27.00;91.80;;;;;;5042078;28;20234;-44
2022/06/22 13:51:40;;;;;;;3.60;1.70;;;27.00;91.20;;;;;;5054560;28;20217;-44
2022/06/22 13:54:33;;;;;;;9.32;1.83;;;27.10;92.20;;;;;;5062162;28;20196;-44
2022/06/22 13:57:10;;;;;;;14.05;2.97;;;27.20;92.00;;;;;;5036912;28;20205;-43
2022/06/22 13:59:44;;;;;;;8.05;2.10;;;27.20;91.40;;;;;;5045977;28;20196;-47
2022/06/22 14:02:20;;;;;;;5.43;1.75;;;27.20;91.90;;;;;;5048605;28;20915;-45
2022/06/22 14:04:53;;;;;;;4.18;1.80;;;27.30;91.80;;;;;;5042256;28;20211;-46
2022/06/22 14:07:36;;;;;;;3.05;1.70;;;27.40;92.00;;;;;;5046227;28;20228;-45
2022/06/22 14:10:40;;;;;;;4.00;1.55;;;27.50;92.30;;;;;;5047806;28;20215;-46
2022/06/22 14:13:32;;;;;;;3.65;1.55;;;27.60;91.40;;;;;;5048457;28;20200;-46
2022/06/22 14:16:01;;;;;;;2.88;1.23;;;27.70;92.10;;;;;;5041712;28;20217;-46